Mobile Regional Airport
KMOB : now visible

Airfield :











YOU CAN JOIN US ON...

 
LOGIN :

Register | Disclaimer

   EN    FR    IT 

 









Legend :    VFR   Marginal VFR   IFR   Intensive IFR   Very Intensive IFR
Visi :
Ceiling :
>= 8 km
>= 3000ft
5 to 8 km
1000 to 3000 ft
1500m to 5 km
500 to 1000 ft
800 to 1500m
200 to 500 ft
< 800m
< 200 ft
Symbols :   Thunderstorms  Fog  Heavy snow  Heavy precipitations  Wind > 20 kt






- Airport Elevation : 219 ft
- IATA code : MOB


KMOB - Mobile Regional

CURRENT METAR :
  • 300756Z AUTO 33003KT 10SM FEW060 14/07 A2997 RMK AO2 SLP147 T01390072

EXPIRED METARs :
  • 300656Z AUTO 34005KT 10SM CLR 14/07 A2998 RMK AO2 SLP148 T01440067
  • 300556Z AUTO 36005KT 10SM CLR 16/07 A2998 RMK AO2 SLP150 T01610067 10200 20161 402610122 58016

TAF KMOB
Valid from the 30 at 06:00 until the 01 at 06:00 UTC


300520Z 3006/0106 36007KT P6SM FEW060
FM301500 01010KT P6SM FEW060
KZHU FIR / North America



MET'MAP, your aeronautical weather chart ! - Copyright ORBIFLY December 2007 - Disclaimer

ORBIFLY MET'MAP TEAM :

Programming & Development : Alexandra Zaïnal
Original concept : Baudouin d'Aumeries
Technical & hardware support : Manuel Goepfert
Assistance : Marc-Olivier Méhu




SOURCES & CREDITS :

   NOAA       Earth
Advisory